createdAt,value
2023-04-16T00:01:17.832Z,12.48
2023-04-16T00:03:45.239Z,12.73
2023-04-16T00:06:12.858Z,14.23
2023-04-16T00:08:41.101Z,11.57
2023-04-16T00:11:08.460Z,11.23
2023-04-16T00:13:35.784Z,12.23
2023-04-16T00:16:03.190Z,15.20
2023-04-16T00:18:30.922Z,12.70
2023-04-16T00:20:59.552Z,11.52
2023-04-16T00:23:26.845Z,11.40
2023-04-16T00:25:57.165Z,10.77
2023-04-16T00:28:24.479Z,10.68
2023-04-16T00:30:51.943Z,10.15
2023-04-16T00:33:19.365Z,10.15
2023-04-16T00:35:47.807Z,10.13
2023-04-16T00:38:15.845Z,9.80
2023-04-16T00:40:43.221Z,12.55
2023-04-16T00:43:10.605Z,10.27
2023-04-16T00:45:38.976Z,10.68
2023-04-16T00:48:06.370Z,10.25
2023-04-16T00:50:33.986Z,10.70
2023-04-16T00:53:02.225Z,11.02
2023-04-16T00:55:29.769Z,9.13
2023-04-16T00:57:57.107Z,9.45
2023-04-16T01:00:24.524Z,8.80
2023-04-16T01:02:52.432Z,8.90
2023-04-16T01:05:20.941Z,9.52
2023-04-16T01:07:48.498Z,9.93
2023-04-16T01:10:15.806Z,9.15
2023-04-16T01:12:43.137Z,8.70
2023-04-16T01:15:11.354Z,11.18
2023-04-16T01:17:38.982Z,11.07
2023-04-16T01:20:07.069Z,8.98
2023-04-16T01:22:34.419Z,11.55
2023-04-16T01:25:01.723Z,9.25
2023-04-16T01:27:29.860Z,9.48
2023-04-16T01:29:57.105Z,8.75
2023-04-16T01:32:36.230Z,8.30
2023-04-16T01:35:03.813Z,9.65
2023-04-16T01:37:31.530Z,9.20
2023-04-16T01:39:58.843Z,8.57
2023-04-16T01:42:26.247Z,10.90
2023-04-16T01:44:53.644Z,9.10
2023-04-16T01:47:21.474Z,10.60
2023-04-16T01:49:48.942Z,10.40
2023-04-16T01:52:16.759Z,9.68
2023-04-16T01:54:44.109Z,11.07
2023-04-16T01:57:11.485Z,9.73
2023-04-16T01:59:38.806Z,10.48
2023-04-16T02:02:12.372Z,10.18
2023-04-16T02:04:41.415Z,9.57
2023-04-16T02:07:09.181Z,9.30
2023-04-16T02:09:40.804Z,9.82
2023-04-16T02:12:09.634Z,8.70
2023-04-16T02:14:36.967Z,8.27
2023-04-16T02:17:05.352Z,8.95
2023-04-16T02:19:41.182Z,10.00
2023-04-16T02:22:10.161Z,12.02
2023-04-16T02:24:37.478Z,10.85
2023-04-16T02:27:08.804Z,10.82
2023-04-16T02:29:36.435Z,8.57
2023-04-16T02:32:11.099Z,8.95
2023-04-16T02:34:40.263Z,10.65
2023-04-16T02:37:08.368Z,10.95
2023-04-16T02:39:35.671Z,10.43
2023-04-16T02:42:03.112Z,11.07
2023-04-16T02:44:30.502Z,11.07
2023-04-16T02:46:57.830Z,9.43
2023-04-16T02:49:25.133Z,6.75
2023-04-16T02:51:52.478Z,7.82
2023-04-16T02:54:19.858Z,10.68
2023-04-16T02:56:47.153Z,12.13
2023-04-16T02:59:14.503Z,11.35
2023-04-16T03:01:41.982Z,11.07
2023-04-16T03:04:09.616Z,11.30
2023-04-16T03:06:37.040Z,12.07
2023-04-16T03:09:04.407Z,11.60
2023-04-16T03:11:31.778Z,10.82
2023-04-16T03:13:59.799Z,11.68
2023-04-16T03:16:27.219Z,10.15
2023-04-16T03:18:54.562Z,11.60
2023-04-16T03:21:21.898Z,10.30
2023-04-16T03:23:49.291Z,10.25
2023-04-16T03:26:16.606Z,9.90
2023-04-16T03:28:44.007Z,10.15
2023-04-16T03:31:11.903Z,8.80
2023-04-16T03:33:39.780Z,8.85
2023-04-16T03:36:07.545Z,11.00
2023-04-16T03:38:34.893Z,11.47
2023-04-16T03:41:02.220Z,11.10
2023-04-16T03:43:32.788Z,9.73
2023-04-16T03:46:00.258Z,10.97
2023-04-16T03:48:27.692Z,11.60
2023-04-16T03:50:55.005Z,11.40
2023-04-16T03:53:22.495Z,11.33
2023-04-16T03:55:54.213Z,14.10
2023-04-16T03:58:22.496Z,13.57
2023-04-16T04:00:49.800Z,10.50
2023-04-16T04:03:18.774Z,9.37
2023-04-16T04:05:48.754Z,9.97
2023-04-16T04:08:21.694Z,12.30
2023-04-16T04:10:49.158Z,10.47
2023-04-16T04:13:16.536Z,11.53
2023-04-16T04:15:44.749Z,11.70
2023-04-16T04:18:12.164Z,11.53
2023-04-16T04:20:41.193Z,13.70
2023-04-16T04:23:09.167Z,11.77
2023-04-16T04:25:36.576Z,11.13
2023-04-16T04:28:04.045Z,11.93
2023-04-16T04:30:31.359Z,11.80
2023-04-16T04:32:58.742Z,11.97
2023-04-16T04:35:26.107Z,12.63
2023-04-16T04:37:53.844Z,11.47
2023-04-16T04:40:21.689Z,12.50
2023-04-16T04:42:49.249Z,11.43
2023-04-16T04:45:16.833Z,11.45
2023-04-16T04:47:44.197Z,10.80
2023-04-16T04:50:11.600Z,11.85
2023-04-16T04:52:39.297Z,11.50
2023-04-16T04:55:08.395Z,12.47
2023-04-16T04:57:36.408Z,12.05
2023-04-16T05:00:05.799Z,11.45
2023-04-16T05:02:41.824Z,10.00
2023-04-16T05:05:09.535Z,11.27
2023-04-16T05:07:37.168Z,10.50
2023-04-16T05:10:05.088Z,12.13
2023-04-16T05:12:32.383Z,10.52
2023-04-16T05:14:59.690Z,10.13
2023-04-16T05:17:27.049Z,8.85
2023-04-16T05:19:54.371Z,9.70
2023-04-16T05:22:21.705Z,11.27
2023-04-16T05:24:49.063Z,9.65
2023-04-16T05:27:16.582Z,10.77
2023-04-16T05:29:43.974Z,9.70
2023-04-16T05:32:11.298Z,8.90
2023-04-16T05:34:38.598Z,10.40
2023-04-16T05:37:05.904Z,9.77
2023-04-16T05:39:33.224Z,8.70
2023-04-16T05:42:01.025Z,10.02
2023-04-16T05:44:28.428Z,9.23
2023-04-16T05:46:55.803Z,9.57
2023-04-16T05:49:23.235Z,10.68
2023-04-16T05:51:51.062Z,10.45
2023-04-16T05:54:18.562Z,10.80
2023-04-16T05:56:45.829Z,10.00
2023-04-16T05:59:13.172Z,10.48
2023-04-16T06:01:41.016Z,10.10
2023-04-16T06:04:08.571Z,10.20
2023-04-16T06:06:37.467Z,9.82
2023-04-16T06:09:04.881Z,9.65
2023-04-16T06:11:33.241Z,9.00
2023-04-16T06:14:01.468Z,10.05
2023-04-16T06:16:28.809Z,11.07
2023-04-16T06:18:56.163Z,9.50
2023-04-16T06:21:23.456Z,11.30
2023-04-16T06:23:50.757Z,12.45
2023-04-16T06:26:18.304Z,12.63
2023-04-16T06:28:46.735Z,9.38
2023-04-16T06:31:14.087Z,9.15
2023-04-16T06:33:41.543Z,9.93
2023-04-16T06:36:08.824Z,9.95
2023-04-16T06:38:37.112Z,10.20
2023-04-16T06:41:04.838Z,9.73
2023-04-16T06:43:33.608Z,10.90
2023-04-16T06:46:00.949Z,9.23
2023-04-16T06:48:28.383Z,8.35
2023-04-16T06:50:56.321Z,8.93
2023-04-16T06:53:23.993Z,10.68
2023-04-16T06:55:51.468Z,9.52
2023-04-16T06:58:18.811Z,10.30
2023-04-16T07:00:46.217Z,10.02
2023-04-16T07:03:14.183Z,11.02
2023-04-16T07:05:41.569Z,12.57
2023-04-16T07:08:08.897Z,16.10
2023-04-16T07:10:36.271Z,18.27
2023-04-16T07:13:03.598Z,21.67
2023-04-16T07:15:30.962Z,18.98
2023-04-16T07:17:58.463Z,26.77
2023-04-16T07:20:26.051Z,14.80
2023-04-16T07:22:53.409Z,15.98
2023-04-16T07:25:20.903Z,13.68
2023-04-16T07:27:48.221Z,11.13
2023-04-16T07:30:15.797Z,9.95
2023-04-16T07:32:43.235Z,11.48
2023-04-16T07:35:10.917Z,10.73
2023-04-16T07:37:38.192Z,10.55
2023-04-16T07:40:06.530Z,9.98
2023-04-16T07:42:33.897Z,9.27
2023-04-16T07:45:01.279Z,10.25
2023-04-16T07:47:28.559Z,9.63
2023-04-16T07:49:55.914Z,11.00
2023-04-16T07:52:23.238Z,12.82
2023-04-16T07:54:51.801Z,12.27
2023-04-16T07:57:19.238Z,13.35
2023-04-16T07:59:46.575Z,14.30
2023-04-16T08:02:16.683Z,10.05
2023-04-16T08:04:44.741Z,10.38
2023-04-16T08:07:12.292Z,10.20
2023-04-16T08:09:48.588Z,10.60
2023-04-16T08:12:17.321Z,11.05
2023-04-16T08:14:45.885Z,10.40
2023-04-16T08:17:14.035Z,10.52
2023-04-16T08:19:42.864Z,10.57
2023-04-16T08:22:10.426Z,12.10
2023-04-16T08:24:37.767Z,10.10
2023-04-16T08:27:17.699Z,9.80
2023-04-16T08:29:47.169Z,10.13
2023-04-16T08:32:14.478Z,10.02
2023-04-16T08:34:42.447Z,9.80
2023-04-16T08:37:09.906Z,10.27
2023-04-16T08:39:37.785Z,10.73
2023-04-16T08:42:06.304Z,11.05
2023-04-16T08:44:37.459Z,12.27
2023-04-16T08:47:09.424Z,10.87
2023-04-16T08:52:16.468Z,10.25
2023-04-16T08:54:56.608Z,11.05
2023-04-16T08:57:30.536Z,11.60
2023-04-16T08:59:58.321Z,12.38
2023-04-16T09:02:27.017Z,13.43
2023-04-16T09:04:56.496Z,13.35
2023-04-16T09:07:25.797Z,14.25
2023-04-16T09:09:54.682Z,11.50
2023-04-16T09:12:24.252Z,12.30
2023-04-16T09:14:51.638Z,11.73
2023-04-16T09:17:19.571Z,11.63
2023-04-16T09:19:46.884Z,11.95
2023-04-16T09:22:14.271Z,11.43
2023-04-16T09:24:41.989Z,11.20
2023-04-16T09:27:09.491Z,10.55
2023-04-16T09:29:39.424Z,10.82
2023-04-16T09:32:09.219Z,9.25
2023-04-16T09:35:03.724Z,9.52
2023-04-16T09:37:31.809Z,9.10
2023-04-16T09:40:01.464Z,8.15
2023-04-16T09:42:31.898Z,8.88
2023-04-16T09:45:01.419Z,8.63
2023-04-16T09:47:43.504Z,9.05
2023-04-16T09:50:17.784Z,8.60
2023-04-16T09:52:51.089Z,8.07
2023-04-16T09:55:24.079Z,7.88
2023-04-16T09:58:02.022Z,7.53
2023-04-16T10:00:31.074Z,8.80
2023-04-16T10:03:07.865Z,7.72
2023-04-16T10:05:35.627Z,6.68
2023-04-16T10:08:03.022Z,7.72
2023-04-16T10:10:30.625Z,7.18
2023-04-16T10:12:58.462Z,6.50
2023-04-16T10:15:26.034Z,6.82
2023-04-16T10:17:54.227Z,6.63
2023-04-16T10:20:22.720Z,6.28
2023-04-16T10:22:50.256Z,6.25
2023-04-16T10:25:18.664Z,6.43
2023-04-16T10:27:46.556Z,4.95
2023-04-16T10:30:15.906Z,5.20
2023-04-16T10:32:44.569Z,5.25
2023-04-16T10:35:16.743Z,4.88
2023-04-16T10:37:45.314Z,4.20
2023-04-16T10:40:26.704Z,4.97
2023-04-16T10:42:58.331Z,3.90
2023-04-16T10:45:38.252Z,5.22
2023-04-16T10:48:08.619Z,5.15
2023-04-16T10:50:37.269Z,4.97
2023-04-16T10:53:20.978Z,4.22
2023-04-16T10:56:24.839Z,3.83
2023-04-16T10:58:55.272Z,5.45
2023-04-16T11:01:37.954Z,4.78
2023-04-16T11:04:43.930Z,3.60
2023-04-16T11:07:14.093Z,3.08
2023-04-16T11:09:51.643Z,3.85
2023-04-16T11:12:48.431Z,2.92
2023-04-16T11:15:23.449Z,3.20
2023-04-16T11:17:51.752Z,3.13
2023-04-16T11:20:26.673Z,2.53
2023-04-16T11:22:57.883Z,2.90
2023-04-16T11:25:30.172Z,3.17
2023-04-16T11:27:59.193Z,2.65
2023-04-16T11:30:37.221Z,2.90
2023-04-16T11:33:05.989Z,2.50
2023-04-16T11:35:33.474Z,2.22
2023-04-16T11:38:00.884Z,2.88
2023-04-16T11:40:31.795Z,3.10
2023-04-16T11:43:17.473Z,2.80
2023-04-16T11:46:10.293Z,2.60
2023-04-16T11:48:53.958Z,2.40
2023-04-16T11:51:23.251Z,2.60
2023-04-16T11:53:53.201Z,2.40
2023-04-16T11:56:28.669Z,2.22
2023-04-16T11:59:28.208Z,3.47
2023-04-16T12:01:56.071Z,3.92
2023-04-16T12:04:25.657Z,4.50
2023-04-16T12:07:25.477Z,4.68
2023-04-16T12:10:08.369Z,5.05
2023-04-16T12:12:35.861Z,2.97
2023-04-16T12:15:04.528Z,3.10
2023-04-16T12:17:33.878Z,3.40
2023-04-16T12:20:05.792Z,4.13
2023-04-16T12:22:36.727Z,4.90
2023-04-16T12:25:13.103Z,4.35
2023-04-16T12:27:50.049Z,3.38
2023-04-16T12:30:22.343Z,3.60
2023-04-16T12:32:52.529Z,3.38
2023-04-16T12:35:33.985Z,3.47
2023-04-16T12:38:01.618Z,3.40
2023-04-16T12:40:28.924Z,3.80
2023-04-16T12:42:56.194Z,5.15
2023-04-16T12:45:25.524Z,4.75
2023-04-16T12:47:52.913Z,5.07
2023-04-16T12:50:20.205Z,3.60
2023-04-16T12:52:47.787Z,3.90
2023-04-16T12:55:15.081Z,3.70
2023-04-16T12:57:42.755Z,4.00
2023-04-16T13:00:11.243Z,6.38
2023-04-16T13:02:38.774Z,5.47
2023-04-16T13:05:06.639Z,4.35
2023-04-16T13:07:34.268Z,4.32
2023-04-16T13:10:01.968Z,4.60
2023-04-16T13:12:29.566Z,4.85
2023-04-16T13:14:56.820Z,5.25
2023-04-16T13:17:24.176Z,5.88
2023-04-16T13:19:51.450Z,4.70
2023-04-16T13:22:18.863Z,4.25
2023-04-16T13:24:46.331Z,4.78
2023-04-16T13:27:16.118Z,3.42
2023-04-16T13:29:43.513Z,3.72
2023-04-16T13:32:13.682Z,4.55
2023-04-16T13:34:41.101Z,4.60
2023-04-16T13:37:08.465Z,4.00
2023-04-16T13:39:35.756Z,5.20
2023-04-16T13:42:03.075Z,4.80
2023-04-16T13:44:30.422Z,4.60
2023-04-16T13:46:57.929Z,3.50
2023-04-16T13:49:25.473Z,4.10
2023-04-16T13:51:52.744Z,3.03
2023-04-16T13:54:20.069Z,3.97
2023-04-16T13:56:47.482Z,3.67
2023-04-16T13:59:15.838Z,3.28
2023-04-16T14:01:43.108Z,3.35
2023-04-16T14:04:10.467Z,3.50
2023-04-16T14:06:37.798Z,3.97
2023-04-16T14:09:05.499Z,3.05
2023-04-16T14:11:32.834Z,3.67
2023-04-16T14:14:00.313Z,5.53
2023-04-16T14:16:27.833Z,3.70
2023-04-16T14:18:55.405Z,3.88
2023-04-16T14:21:22.684Z,2.75
2023-04-16T14:23:50.012Z,3.53
2023-04-16T14:26:17.325Z,3.03
2023-04-16T14:28:44.856Z,2.90
2023-04-16T14:31:12.177Z,3.83
2023-04-16T14:33:39.492Z,3.35
2023-04-16T14:36:06.991Z,3.72
2023-04-16T14:38:34.390Z,2.65
2023-04-16T14:41:01.759Z,3.05
2023-04-16T14:43:29.224Z,3.70
2023-04-16T14:45:58.580Z,9.50
2023-04-16T14:48:26.127Z,3.03
2023-04-16T14:50:53.827Z,3.10
2023-04-16T14:53:22.767Z,4.90
2023-04-16T14:55:50.493Z,2.63
2023-04-16T14:58:17.823Z,2.20
2023-04-16T15:00:45.380Z,2.50
2023-04-16T15:03:13.005Z,2.35
2023-04-16T15:05:40.681Z,2.22
2023-04-16T15:08:08.047Z,2.10
2023-04-16T15:10:35.448Z,4.40
2023-04-16T15:13:02.799Z,2.45
2023-04-16T15:15:30.076Z,2.58
2023-04-16T15:17:57.812Z,5.10
2023-04-16T15:20:25.217Z,2.38
2023-04-16T15:22:53.803Z,2.65
2023-04-16T15:25:21.295Z,2.22
2023-04-16T15:27:48.726Z,1.95
2023-04-16T15:30:16.210Z,2.08
2023-04-16T15:32:46.771Z,1.85
2023-04-16T15:35:14.588Z,1.88
2023-04-16T15:37:41.904Z,1.52
2023-04-16T15:40:09.499Z,2.38
2023-04-16T15:42:36.846Z,2.72
2023-04-16T15:45:04.623Z,2.08
2023-04-16T15:47:31.945Z,2.35
2023-04-16T15:49:59.293Z,3.22
2023-04-16T15:52:26.629Z,2.33
2023-04-16T15:54:54.841Z,3.42
2023-04-16T15:57:22.133Z,2.42
2023-04-16T16:00:03.460Z,2.88
2023-04-16T16:02:34.606Z,3.90
2023-04-16T16:05:03.351Z,3.30
2023-04-16T16:07:31.096Z,3.92
2023-04-16T16:09:58.465Z,3.67
2023-04-16T16:12:25.757Z,3.55
2023-04-16T16:14:53.277Z,3.83
2023-04-16T16:17:20.764Z,4.25
2023-04-16T16:19:48.134Z,4.57
2023-04-16T16:22:20.245Z,5.18
2023-04-16T16:24:53.601Z,3.67
2023-04-16T16:27:21.077Z,3.90
2023-04-16T16:29:48.419Z,3.67
2023-04-16T16:32:16.613Z,3.58
2023-04-16T16:34:43.945Z,3.55
2023-04-16T16:37:11.253Z,2.72
2023-04-16T16:39:39.011Z,3.20
2023-04-16T16:42:08.585Z,2.47
2023-04-16T16:44:36.638Z,2.67
2023-04-16T16:47:04.034Z,3.10
2023-04-16T16:49:31.488Z,2.78
2023-04-16T16:51:58.766Z,3.63
2023-04-16T16:54:26.129Z,3.90
2023-04-16T16:56:53.417Z,3.55
2023-04-16T16:59:20.817Z,3.35
2023-04-16T17:01:48.116Z,2.63
2023-04-16T17:04:17.172Z,2.78
2023-04-16T17:06:46.889Z,3.05
2023-04-16T17:09:14.325Z,3.50
2023-04-16T17:11:41.867Z,4.53
2023-04-16T17:14:09.270Z,3.92
2023-04-16T17:16:36.564Z,4.85
2023-04-16T17:19:04.006Z,4.00
2023-04-16T17:21:33.140Z,4.47
2023-04-16T17:24:00.520Z,4.65
2023-04-16T17:26:27.841Z,4.35
2023-04-16T17:28:56.737Z,6.90
2023-04-16T17:31:26.694Z,8.52
2023-04-16T17:33:54.320Z,7.18
2023-04-16T17:36:23.024Z,7.80
2023-04-16T17:38:50.698Z,10.32
2023-04-16T17:41:18.080Z,10.02
2023-04-16T17:43:49.748Z,10.55
2023-04-16T17:46:17.215Z,12.20
2023-04-16T17:48:44.632Z,12.30
2023-04-16T17:51:12.773Z,11.98
2023-04-16T17:53:42.578Z,12.45
2023-04-16T17:56:10.092Z,12.70
2023-04-16T17:58:37.464Z,12.35
2023-04-16T18:01:05.377Z,13.00
2023-04-16T18:03:33.490Z,13.45
2023-04-16T18:06:01.082Z,12.65
2023-04-16T18:08:28.908Z,12.48
2023-04-16T18:10:56.823Z,14.07
2023-04-16T18:13:24.692Z,11.60
2023-04-16T18:15:53.009Z,12.10
2023-04-16T18:18:21.314Z,10.18
2023-04-16T18:20:48.666Z,7.30
2023-04-16T18:23:16.048Z,6.80
2023-04-16T18:25:43.456Z,7.20
2023-04-16T18:28:13.859Z,5.97
2023-04-16T18:30:42.534Z,6.38
2023-04-16T18:33:43.499Z,6.88
2023-04-16T18:36:02.385Z,5.65
2023-04-16T18:38:31.424Z,7.10
2023-04-16T18:40:58.938Z,6.85
2023-04-16T18:43:26.328Z,5.60
2023-04-16T18:45:53.676Z,6.40
2023-04-16T18:48:21.039Z,6.90
2023-04-16T18:50:48.409Z,5.20
2023-04-16T18:53:15.711Z,5.70
2023-04-16T18:55:43.031Z,5.75
2023-04-16T18:58:10.906Z,5.68
2023-04-16T19:00:38.265Z,5.20
2023-04-16T19:03:07.162Z,3.50
2023-04-16T19:05:34.749Z,3.20
2023-04-16T19:08:02.033Z,3.30
2023-04-16T19:10:29.572Z,3.38
2023-04-16T19:12:57.269Z,4.30
2023-04-16T19:15:24.595Z,3.03
2023-04-16T19:17:51.909Z,2.85
2023-04-16T19:20:20.217Z,3.38
2023-04-16T19:22:47.507Z,3.15
2023-04-16T19:25:14.872Z,3.28
2023-04-16T19:27:42.235Z,3.40
2023-04-16T19:30:10.314Z,3.35
2023-04-16T19:32:37.659Z,3.10
2023-04-16T19:35:05.522Z,3.42
2023-04-16T19:37:32.868Z,4.20
2023-04-16T19:40:01.825Z,4.38
2023-04-16T19:42:29.159Z,3.90
2023-04-16T19:44:56.803Z,4.15
2023-04-16T19:47:24.444Z,4.10
2023-04-16T19:49:51.912Z,3.80
2023-04-16T19:52:19.228Z,4.20
2023-04-16T19:54:46.613Z,4.22
2023-04-16T19:57:13.942Z,5.55
2023-04-16T19:59:41.316Z,5.03
2023-04-16T20:02:08.704Z,4.63
2023-04-16T20:04:36.042Z,4.57
2023-04-16T20:07:03.487Z,5.45
2023-04-16T20:09:31.046Z,5.45
2023-04-16T20:11:58.407Z,6.03
2023-04-16T20:14:25.692Z,6.93
2023-04-16T20:16:53.082Z,6.45
2023-04-16T20:19:20.416Z,6.43
2023-04-16T20:21:47.743Z,5.90
2023-04-16T20:24:15.513Z,5.93
2023-04-16T20:26:42.867Z,6.70
2023-04-16T20:29:10.583Z,6.07
2023-04-16T20:31:38.043Z,6.97
2023-04-16T20:34:05.342Z,6.65
2023-04-16T20:36:32.756Z,6.32
2023-04-16T20:39:02.162Z,6.53
2023-04-16T20:41:30.202Z,6.35
2023-04-16T20:43:57.494Z,5.70
2023-04-16T20:46:24.860Z,7.30
2023-04-16T20:48:52.196Z,6.35
2023-04-16T20:51:19.650Z,5.82
2023-04-16T20:53:46.997Z,6.20
2023-04-16T20:56:15.129Z,6.35
2023-04-16T20:58:43.419Z,6.38
2023-04-16T21:01:10.907Z,5.82
2023-04-16T21:03:38.362Z,7.82
2023-04-16T21:06:05.934Z,6.15
2023-04-16T21:08:33.324Z,6.15
2023-04-16T21:11:00.674Z,7.15
2023-04-16T21:13:28.232Z,7.22
2023-04-16T21:15:55.914Z,7.03
2023-04-16T21:18:23.205Z,7.13
2023-04-16T21:20:50.530Z,7.03
2023-04-16T21:23:18.929Z,6.82
2023-04-16T21:25:46.253Z,7.13
2023-04-16T21:28:13.601Z,9.77
2023-04-16T21:30:41.381Z,7.40
2023-04-16T21:33:08.707Z,7.75
2023-04-16T21:35:36.165Z,7.65
2023-04-16T21:38:03.510Z,8.18
2023-04-16T21:40:30.904Z,8.93
2023-04-16T21:42:58.237Z,8.95
2023-04-16T21:45:25.567Z,9.48
2023-04-16T21:47:53.003Z,8.88
2023-04-16T21:50:20.385Z,7.95
2023-04-16T21:52:47.686Z,8.80
2023-04-16T21:55:14.973Z,8.43
2023-04-16T21:57:42.306Z,8.30
2023-04-16T22:00:14.202Z,9.13
2023-04-16T22:02:42.916Z,8.85
2023-04-16T22:05:11.362Z,9.50
2023-04-16T22:07:39.029Z,7.60
2023-04-16T22:10:08.731Z,8.00
2023-04-16T22:12:39.947Z,8.15
2023-04-16T22:15:09.045Z,9.40
2023-04-16T22:17:36.590Z,8.93
2023-04-16T22:20:14.537Z,9.38
2023-04-16T22:22:42.265Z,10.63
2023-04-16T22:25:10.330Z,9.60
2023-04-16T22:27:38.161Z,9.93
2023-04-16T22:30:09.204Z,10.13
2023-04-16T22:32:36.659Z,11.00
2023-04-16T22:35:04.416Z,10.95
2023-04-16T22:37:31.808Z,10.27
2023-04-16T22:39:59.144Z,9.77
2023-04-16T22:42:27.018Z,9.80
2023-04-16T22:44:54.307Z,10.52
2023-04-16T22:47:21.705Z,9.65
2023-04-16T22:49:49.071Z,9.88
2023-04-16T22:52:16.471Z,9.25
2023-04-16T22:54:43.772Z,9.15
2023-04-16T22:57:11.092Z,9.90
2023-04-16T22:59:38.456Z,9.93
2023-04-16T23:02:05.980Z,10.52
2023-04-16T23:04:33.381Z,9.27
2023-04-16T23:07:00.888Z,8.85
2023-04-16T23:09:28.175Z,9.60
2023-04-16T23:11:55.910Z,9.05
2023-04-16T23:14:23.697Z,8.85
2023-04-16T23:16:51.027Z,8.85
2023-04-16T23:19:18.386Z,7.93
2023-04-16T23:21:45.849Z,8.10
2023-04-16T23:24:13.184Z,8.50
2023-04-16T23:26:40.467Z,7.97
2023-04-16T23:29:07.824Z,9.45
2023-04-16T23:31:35.250Z,7.68
2023-04-16T23:34:02.752Z,9.85
2023-04-16T23:36:30.001Z,9.15
2023-04-16T23:38:57.341Z,9.30
2023-04-16T23:41:24.647Z,8.27
2023-04-16T23:43:52.031Z,8.93
2023-04-16T23:46:19.358Z,9.52
2023-04-16T23:48:46.685Z,8.77
2023-04-16T23:51:14.019Z,10.77
2023-04-16T23:53:41.371Z,7.85
2023-04-16T23:56:11.161Z,8.52
2023-04-16T23:58:38.625Z,8.77
